Time;durP1;ratioP1;P1;durP2;ratioP2;P2;SDS_P1;SDS_P2;PMS_P1;PMS_P2;Temp;Humidity;BMP_temperature;BMP_pressure;BME280_temperature;BME280_humidity;BME280_pressure;Samples;Min_cycle;Max_cycle;Signal;HPM_P1;HPM_P2
2023/01/04 00:02:07;;;;;;;3.33;2.67;;;6.10;99.90;;;;;;5051993;28;20223;-72
2023/01/04 00:04:32;;;;;;;4.30;2.40;;;6.20;99.90;;;;;;5037965;28;20448;-72
2023/01/04 00:06:58;;;;;;;3.30;2.40;;;6.20;99.90;;;;;;5039738;28;20692;-71
2023/01/04 00:09:27;;;;;;;4.23;2.67;;;6.20;99.90;;;;;;5051253;28;20301;-73
2023/01/04 00:11:52;;;;;;;4.43;2.43;;;6.20;99.90;;;;;;5043265;28;20676;-72
2023/01/04 00:14:19;;;;;;;3.10;2.20;;;6.20;99.90;;;;;;5049446;28;20473;-72
2023/01/04 00:16:44;;;;;;;4.97;2.50;;;6.20;99.90;;;;;;5027459;28;20211;-71
2023/01/04 00:19:11;;;;;;;2.27;2.07;;;6.20;99.90;;;;;;5062401;28;20452;-72
2023/01/04 00:21:37;;;;;;;3.60;2.50;;;6.20;99.90;;;;;;5037478;28;20212;-72
2023/01/04 00:24:03;;;;;;;3.70;2.50;;;6.20;99.90;;;;;;5052405;28;20445;-72
2023/01/04 00:26:31;;;;;;;3.73;2.30;;;6.20;99.90;;;;;;5049949;28;20212;-72
2023/01/04 00:29:04;;;;;;;2.90;2.20;;;6.30;99.90;;;;;;5053873;28;20220;-73
2023/01/04 00:31:30;;;;;;;2.40;2.20;;;6.30;99.90;;;;;;5032765;28;20442;-72
2023/01/04 00:33:57;;;;;;;2.13;1.93;;;6.30;99.90;;;;;;5064542;28;20479;-72
2023/01/04 00:36:24;;;;;;;6.60;3.20;;;6.20;99.90;;;;;;5043662;28;20977;-70
2023/01/04 00:39:05;;;;;;;4.10;2.80;;;6.20;99.90;;;;;;5038907;28;21000;-70
2023/01/04 00:41:52;;;;;;;2.70;2.17;;;6.20;99.90;;;;;;5051810;28;20500;-72
2023/01/04 00:44:20;;;;;;;3.90;2.43;;;6.30;99.90;;;;;;5042895;28;20461;-73
2023/01/04 00:46:46;;;;;;;4.83;2.83;;;6.30;99.90;;;;;;5040139;28;20518;-71
2023/01/04 00:49:12;;;;;;;3.70;2.87;;;6.30;99.90;;;;;;5035441;28;20470;-72
2023/01/04 00:51:40;;;;;;;5.13;3.07;;;6.30;99.90;;;;;;5050691;28;20475;-71
2023/01/04 00:54:11;;;;;;;3.77;2.70;;;6.30;99.90;;;;;;5082510;28;20458;-73
2023/01/04 00:56:36;;;;;;;3.10;2.50;;;6.40;99.90;;;;;;5036695;28;20443;-72
2023/01/04 00:59:03;;;;;;;3.67;2.40;;;6.40;99.90;;;;;;5049542;28;20475;-72
2023/01/04 01:01:31;;;;;;;6.10;2.63;;;6.30;99.90;;;;;;5036468;28;20216;-72
2023/01/04 01:03:59;;;;;;;4.70;2.57;;;6.30;99.90;;;;;;5039971;28;20439;-72
2023/01/04 01:06:26;;;;;;;3.00;2.40;;;6.30;99.90;;;;;;5040785;28;20462;-72
2023/01/04 01:08:52;;;;;;;2.90;2.43;;;6.30;99.90;;;;;;5061345;28;20457;-68
2023/01/04 01:11:19;;;;;;;4.27;3.67;;;6.40;99.90;;;;;;5047903;28;20796;-72
2023/01/04 01:13:45;;;;;;;8.10;5.00;;;6.40;99.90;;;;;;5038450;28;20459;-71
2023/01/04 01:16:13;;;;;;;16.27;7.57;;;6.40;99.90;;;;;;5056703;28;20508;-72
2023/01/04 01:18:41;;;;;;;15.87;7.77;;;6.40;99.90;;;;;;5027122;28;20550;-71
2023/01/04 01:21:22;;;;;;;11.27;6.00;;;6.40;99.90;;;;;;5056425;28;20457;-72
2023/01/04 01:23:49;;;;;;;15.27;6.80;;;6.40;99.90;;;;;;5040809;28;20450;-73
2023/01/04 01:26:17;;;;;;;7.87;3.63;;;6.40;99.90;;;;;;5040948;28;20465;-72
2023/01/04 01:28:43;;;;;;;4.70;3.57;;;6.40;99.90;;;;;;5066012;28;20450;-72
2023/01/04 01:31:20;;;;;;;6.40;3.10;;;6.30;99.90;;;;;;5052665;28;20465;-72
2023/01/04 01:33:48;;;;;;;4.20;3.23;;;6.30;99.90;;;;;;5050014;28;20487;-72
2023/01/04 01:36:15;;;;;;;5.87;3.37;;;6.20;99.90;;;;;;5041892;28;20551;-72
2023/01/04 01:38:42;;;;;;;9.10;2.90;;;6.20;99.90;;;;;;5044090;28;20879;-71
2023/01/04 01:41:16;;;;;;;5.53;2.67;;;6.30;99.90;;;;;;5042338;28;20473;-71
2023/01/04 01:43:57;;;;;;;3.23;2.90;;;6.20;99.90;;;;;;5054092;28;21027;-70
2023/01/04 01:46:34;;;;;;;5.33;3.00;;;6.20;99.90;;;;;;5034286;28;20505;-70
2023/01/04 01:49:03;;;;;;;4.37;2.97;;;6.20;99.90;;;;;;5039055;28;20453;-69
2023/01/04 01:51:30;;;;;;;3.40;3.00;;;6.20;99.90;;;;;;5053335;28;20472;-69
2023/01/04 01:54:05;;;;;;;4.40;3.47;;;6.30;99.90;;;;;;5052465;28;20462;-70
2023/01/04 01:56:35;;;;;;;4.33;2.97;;;6.30;99.90;;;;;;5031187;28;20473;-70
2023/01/04 01:59:02;;;;;;;2.27;2.07;;;6.40;99.90;;;;;;5059860;28;20457;-69
2023/01/04 02:01:28;;;;;;;12.50;3.33;;;6.30;99.90;;;;;;5042063;28;20462;-70
2023/01/04 02:03:54;;;;;;;4.57;2.47;;;6.30;99.90;;;;;;5062495;28;20445;-70
2023/01/04 02:06:28;;;;;;;6.17;3.00;;;6.30;99.90;;;;;;5033982;28;20254;-70
2023/01/04 02:08:54;;;;;;;4.40;3.13;;;6.30;99.90;;;;;;5021794;28;20459;-72
2023/01/04 02:11:20;;;;;;;2.60;2.27;;;6.30;99.90;;;;;;5039533;28;20610;-70
2023/01/04 02:16:46;;;;;;;2.43;2.23;;;6.30;99.90;;;;;;5058963;28;20246;-70
2023/01/04 02:19:47;;;;;;;3.67;2.70;;;6.20;99.90;;;;;;5058394;28;20445;-71
2023/01/04 02:22:41;;;;;;;2.10;1.70;;;6.30;99.90;;;;;;5061701;28;20549;-71
2023/01/04 02:25:39;;;;;;;3.10;2.20;;;6.40;99.90;;;;;;5055828;28;20441;-71
2023/01/04 02:28:20;;;;;;;4.13;2.90;;;6.40;99.90;;;;;;5066149;28;20449;-71
2023/01/04 02:31:01;;;;;;;11.90;3.30;;;6.40;99.90;;;;;;5034922;28;20523;-70
2023/01/04 02:33:58;;;;;;;3.77;2.63;;;6.40;99.90;;;;;;5037191;28;20475;-70
2023/01/04 02:36:53;;;;;;;3.50;2.53;;;6.40;99.90;;;;;;5055429;28;20446;-71
2023/01/04 02:39:31;;;;;;;3.03;2.23;;;6.40;99.90;;;;;;5057083;28;20483;-71
2023/01/04 02:41:58;;;;;;;3.53;2.40;;;6.50;99.90;;;;;;5044919;28;20508;-67
2023/01/04 02:44:52;;;;;;;4.17;2.43;;;6.40;99.90;;;;;;5031092;28;20503;-71
2023/01/04 02:50:31;;;;;;;2.23;1.70;;;6.40;99.90;;;;;;5054958;28;20473;-70
2023/01/04 02:53:08;;;;;;;2.80;2.20;;;6.50;99.90;;;;;;5048956;28;20462;-71
2023/01/04 02:55:43;;;;;;;2.60;2.40;;;6.50;99.90;;;;;;5046910;28;20500;-71
2023/01/04 02:58:28;;;;;;;3.50;2.33;;;6.50;99.90;;;;;;5062877;28;20461;-71
2023/01/04 03:07:08;;;;;;;3.50;2.63;;;6.50;99.90;;;;;;5051305;28;20455;-71
2023/01/04 03:09:36;;;;;;;2.83;2.63;;;6.40;99.90;;;;;;5047631;28;20827;-70
2023/01/04 03:15:06;;;;;;;4.33;2.60;;;6.50;99.90;;;;;;5047348;28;20478;-70
2023/01/04 03:17:41;;;;;;;5.10;3.10;;;6.50;99.90;;;;;;5051227;28;20458;-70
2023/01/04 03:20:10;;;;;;;6.10;3.70;;;6.50;99.90;;;;;;5050748;28;20499;-70
2023/01/04 03:37:37;;;;;;;3.53;2.77;;;6.60;99.90;;;;;;5050257;28;20440;-70
2023/01/04 03:49:16;;;;;;;4.77;3.50;;;6.60;99.90;;;;;;5063059;28;20446;-71
2023/01/04 03:51:44;;;;;;;5.10;3.23;;;6.60;99.90;;;;;;5043684;28;20550;-70
2023/01/04 03:54:16;;;;;;;4.23;2.73;;;6.50;99.90;;;;;;5052941;28;20470;-70
2023/01/04 03:56:44;;;;;;;6.33;3.77;;;6.50;99.90;;;;;;5058012;28;20794;-71
2023/01/04 03:59:11;;;;;;;3.73;3.07;;;6.60;99.90;;;;;;5037998;28;20549;-70
2023/01/04 04:01:38;;;;;;;4.60;3.00;;;6.60;99.90;;;;;;5048518;28;20994;-70
2023/01/04 04:09:32;;;;;;;4.57;3.33;;;6.60;99.90;;;;;;5049525;28;20467;-70
2023/01/04 04:11:58;;;;;;;5.10;3.57;;;6.60;99.90;;;;;;5047741;28;20453;-67
2023/01/04 04:14:24;;;;;;;4.47;3.10;;;6.60;99.90;;;;;;5063360;28;20255;-70
2023/01/04 04:16:49;;;;;;;4.93;3.73;;;6.60;99.90;;;;;;5044567;28;20223;-72
2023/01/04 04:19:15;;;;;;;4.70;3.63;;;6.60;99.90;;;;;;5059798;28;20212;-68
2023/01/04 04:21:41;;;;;;;4.23;2.90;;;6.70;99.90;;;;;;5054772;28;20268;-69
2023/01/04 04:24:08;;;;;;;3.53;3.23;;;6.70;99.90;;;;;;5061707;28;20302;-70
2023/01/04 04:26:34;;;;;;;4.20;2.87;;;6.70;99.90;;;;;;5055634;28;20481;-71
2023/01/04 04:29:00;;;;;;;4.93;3.53;;;6.70;99.90;;;;;;5048829;28;20482;-72
2023/01/04 04:31:25;;;;;;;4.20;2.60;;;6.60;99.90;;;;;;5057571;28;20619;-70
2023/01/04 04:33:51;;;;;;;3.13;2.30;;;6.70;99.90;;;;;;5055187;28;20605;-70
2023/01/04 04:36:17;;;;;;;3.80;3.10;;;6.70;99.90;;;;;;5055455;28;20264;-70
2023/01/04 04:38:42;;;;;;;5.03;3.63;;;6.70;99.90;;;;;;5044374;28;20332;-71
2023/01/04 04:43:57;;;;;;;6.37;2.70;;;6.70;99.90;;;;;;5054985;28;20310;-71
2023/01/04 04:46:23;;;;;;;4.93;3.10;;;6.80;99.90;;;;;;5058577;28;20556;-70
2023/01/04 04:48:49;;;;;;;4.97;3.30;;;6.80;99.90;;;;;;5038715;28;20318;-71
2023/01/04 04:51:16;;;;;;;4.10;2.50;;;6.80;99.90;;;;;;5057251;28;20978;-71
2023/01/04 04:53:42;;;;;;;4.47;3.00;;;6.80;99.90;;;;;;5054385;28;20488;-71
2023/01/04 04:56:08;;;;;;;5.40;3.80;;;6.80;99.90;;;;;;5041620;28;20450;-70
2023/01/04 04:58:34;;;;;;;3.43;2.90;;;6.80;99.90;;;;;;5036578;28;20461;-70
2023/01/04 05:01:00;;;;;;;4.10;2.93;;;6.90;99.90;;;;;;5055580;28;20469;-72
2023/01/04 05:03:26;;;;;;;3.90;2.70;;;6.90;99.90;;;;;;5056704;28;20492;-71
2023/01/04 05:05:52;;;;;;;3.60;3.03;;;6.90;99.90;;;;;;5031469;28;20306;-71
2023/01/04 05:08:17;;;;;;;3.87;2.70;;;6.90;99.90;;;;;;5073254;28;20226;-71
2023/01/04 05:10:43;;;;;;;4.73;3.23;;;6.90;99.90;;;;;;5058403;28;20450;-71
2023/01/04 05:13:11;;;;;;;3.57;2.90;;;6.90;99.90;;;;;;5062349;28;20229;-72
2023/01/04 05:15:44;;;;;;;4.57;3.00;;;7.00;99.90;;;;;;5050807;28;20227;-71
2023/01/04 05:18:12;;;;;;;6.67;3.73;;;6.90;99.90;;;;;;5052055;28;20574;-72
2023/01/04 05:20:37;;;;;;;3.43;2.80;;;7.00;99.90;;;;;;5067428;28;20453;-72
2023/01/04 05:23:04;;;;;;;5.03;4.00;;;7.00;99.90;;;;;;5060623;28;20481;-72
2023/01/04 05:25:29;;;;;;;8.77;3.90;;;7.00;99.90;;;;;;5065551;28;20225;-72
2023/01/04 05:27:55;;;;;;;6.03;3.77;;;7.00;99.90;;;;;;5068705;28;20454;-71
2023/01/04 05:33:06;;;;;;;3.70;2.87;;;7.00;99.90;;;;;;5049174;28;20493;-72
2023/01/04 05:35:33;;;;;;;2.80;2.50;;;7.00;99.90;;;;;;5020201;28;20469;-72
2023/01/04 05:37:59;;;;;;;4.73;3.83;;;7.00;99.90;;;;;;5020384;28;20513;-72
2023/01/04 05:40:25;;;;;;;4.20;2.40;;;7.10;99.90;;;;;;5040251;28;20459;-72
2023/01/04 05:42:51;;;;;;;4.00;2.87;;;7.10;99.90;;;;;;5079484;28;20449;-72
2023/01/04 05:45:19;;;;;;;4.90;2.87;;;7.10;99.90;;;;;;5055102;28;20456;-72
2023/01/04 05:47:49;;;;;;;3.13;2.83;;;7.10;99.90;;;;;;5059012;28;20329;-73
2023/01/04 05:50:19;;;;;;;3.10;2.70;;;7.10;99.90;;;;;;5065111;28;20454;-72
2023/01/04 05:52:45;;;;;;;3.70;2.60;;;7.10;99.90;;;;;;5042902;28;20497;-72
2023/01/04 05:55:10;;;;;;;3.13;2.47;;;7.10;99.90;;;;;;5050864;28;20532;-71
2023/01/04 05:57:36;;;;;;;4.80;3.50;;;7.10;99.90;;;;;;5057297;28;20561;-71
2023/01/04 06:00:04;;;;;;;3.33;2.67;;;7.10;99.90;;;;;;5054007;28;20224;-72
2023/01/04 06:02:38;;;;;;;2.80;2.60;;;7.10;99.90;;;;;;5044311;28;20219;-72
2023/01/04 06:05:04;;;;;;;4.60;2.97;;;7.20;99.90;;;;;;5053142;28;20514;-69
2023/01/04 06:07:30;;;;;;;2.80;2.27;;;7.20;99.90;;;;;;5053170;28;20211;-72
2023/01/04 06:09:56;;;;;;;4.73;2.83;;;7.20;99.90;;;;;;5067041;28;20458;-71
2023/01/04 06:12:22;;;;;;;3.57;2.67;;;7.20;99.90;;;;;;5051642;28;20472;-72
2023/01/04 06:14:47;;;;;;;2.80;2.03;;;7.20;99.90;;;;;;5045767;28;20454;-72
2023/01/04 06:17:13;;;;;;;3.87;2.23;;;7.20;99.90;;;;;;5054504;28;20232;-72
2023/01/04 06:19:39;;;;;;;2.97;2.70;;;7.30;99.90;;;;;;5036118;28;20219;-71
2023/01/04 06:22:05;;;;;;;5.47;2.70;;;7.20;99.90;;;;;;5061127;28;20226;-71
2023/01/04 06:24:32;;;;;;;2.60;2.00;;;7.20;99.90;;;;;;5031338;28;20295;-72
2023/01/04 06:26:59;;;;;;;2.80;2.00;;;7.30;99.90;;;;;;5055115;28;20449;-70
2023/01/04 06:29:25;;;;;;;3.13;1.80;;;7.30;99.90;;;;;;5012387;28;20460;-70
2023/01/04 06:31:50;;;;;;;2.63;1.90;;;7.30;99.90;;;;;;5061970;28;20446;-71
2023/01/04 06:34:16;;;;;;;2.47;2.10;;;7.30;99.90;;;;;;5052789;28;20212;-71
2023/01/04 06:36:42;;;;;;;8.97;2.57;;;7.30;99.90;;;;;;5063787;28;20253;-71
2023/01/04 06:39:08;;;;;;;2.37;2.17;;;7.30;99.90;;;;;;5060827;28;20294;-72
2023/01/04 06:41:33;;;;;;;2.83;1.70;;;7.30;99.90;;;;;;5051919;28;20303;-72
2023/01/04 06:43:59;;;;;;;2.60;2.10;;;7.30;99.90;;;;;;5063854;28;20549;-71
2023/01/04 06:46:25;;;;;;;3.07;1.80;;;7.30;99.90;;;;;;5035209;28;20227;-71
2023/01/04 06:48:52;;;;;;;2.03;1.83;;;7.30;99.90;;;;;;5059877;28;20741;-72
2023/01/04 06:51:19;;;;;;;4.83;2.20;;;7.30;99.90;;;;;;5068107;28;20280;-72
2023/01/04 06:53:45;;;;;;;2.10;1.40;;;7.40;99.90;;;;;;5063031;28;20510;-72
2023/01/04 06:56:10;;;;;;;3.70;2.00;;;7.40;99.90;;;;;;5042149;28;20533;-72
2023/01/04 06:58:36;;;;;;;1.93;1.77;;;7.40;99.90;;;;;;5055203;28;20603;-72
2023/01/04 07:01:02;;;;;;;2.10;1.57;;;7.40;99.90;;;;;;5069434;28;20232;-72
2023/01/04 07:03:28;;;;;;;1.80;1.50;;;7.40;99.90;;;;;;5065395;28;20459;-72
2023/01/04 07:05:54;;;;;;;1.90;1.70;;;7.40;99.90;;;;;;5034687;28;20447;-73
2023/01/04 07:08:19;;;;;;;1.60;1.50;;;7.40;99.90;;;;;;5047403;28;20211;-72
2023/01/04 07:10:45;;;;;;;2.00;1.80;;;7.40;99.90;;;;;;5056005;28;20297;-72
2023/01/04 07:13:11;;;;;;;3.07;1.80;;;7.40;99.90;;;;;;5051076;28;20254;-72
2023/01/04 07:15:37;;;;;;;1.63;1.40;;;7.40;99.90;;;;;;5050724;28;20369;-71
2023/01/04 07:18:03;;;;;;;1.73;1.60;;;7.40;99.90;;;;;;5049806;28;20220;-72
2023/01/04 07:20:28;;;;;;;2.20;2.00;;;7.40;99.90;;;;;;5050202;28;20458;-72
2023/01/04 07:22:54;;;;;;;2.40;1.73;;;7.50;99.90;;;;;;5041644;28;20687;-71
2023/01/04 07:25:20;;;;;;;3.93;1.87;;;7.50;99.90;;;;;;5055016;28;20238;-71
2023/01/04 07:27:53;;;;;;;1.40;1.27;;;7.50;99.90;;;;;;5038450;28;20700;-72
2023/01/04 07:30:20;;;;;;;1.53;1.43;;;7.50;99.90;;;;;;5040895;28;20296;-72
2023/01/04 07:32:45;;;;;;;2.13;1.57;;;7.50;99.90;;;;;;5041440;28;20890;-72
2023/01/04 07:35:11;;;;;;;5.70;1.40;;;7.50;99.90;;;;;;5055437;28;20533;-72
2023/01/04 07:37:37;;;;;;;1.63;1.20;;;7.50;99.90;;;;;;5051929;28;20224;-72
2023/01/04 07:40:03;;;;;;;1.27;1.03;;;7.50;99.90;;;;;;5044231;28;20708;-72
2023/01/04 07:42:29;;;;;;;1.37;1.27;;;7.50;99.90;;;;;;5056883;28;20215;-73
2023/01/04 07:44:55;;;;;;;2.80;1.93;;;7.50;99.90;;;;;;5043771;28;20458;-73
2023/01/04 07:47:21;;;;;;;2.00;1.60;;;7.50;99.90;;;;;;5056777;28;20217;-73
2023/01/04 07:49:48;;;;;;;4.90;2.00;;;7.60;99.90;;;;;;5052735;28;20310;-72
2023/01/04 07:52:14;;;;;;;2.50;2.03;;;7.60;99.90;;;;;;5037668;28;20219;-72
2023/01/04 07:54:41;;;;;;;2.30;1.50;;;7.60;99.90;;;;;;5051863;28;20439;-72
2023/01/04 07:57:06;;;;;;;3.37;1.50;;;7.60;99.90;;;;;;5078261;28;20454;-71
2023/01/04 07:59:32;;;;;;;1.30;1.20;;;7.60;99.90;;;;;;5067025;28;20591;-72
2023/01/04 08:01:57;;;;;;;1.43;1.20;;;7.60;99.90;;;;;;5051021;28;20210;-72
2023/01/04 08:04:23;;;;;;;2.30;1.90;;;7.60;99.90;;;;;;5045238;28;20208;-72
2023/01/04 08:06:50;;;;;;;1.93;1.60;;;7.60;99.90;;;;;;5042460;28;20251;-74
2023/01/04 08:09:16;;;;;;;1.63;1.33;;;7.60;99.90;;;;;;5047320;28;20223;-72
2023/01/04 08:11:43;;;;;;;3.93;1.60;;;7.60;99.90;;;;;;5047816;28;20870;-73
2023/01/04 08:14:09;;;;;;;1.77;1.60;;;7.60;99.90;;;;;;5030795;28;20470;-72
2023/01/04 08:16:38;;;;;;;2.87;1.70;;;7.60;99.90;;;;;;5049117;28;20454;-72
2023/01/04 08:19:16;;;;;;;2.30;1.50;;;7.60;99.90;;;;;;5049794;28;21014;-72
2023/01/04 08:21:42;;;;;;;3.17;1.40;;;7.70;99.90;;;;;;5053753;28;20957;-72
2023/01/04 08:24:11;;;;;;;2.10;1.57;;;7.70;99.90;;;;;;5064504;28;20926;-73
2023/01/04 08:26:37;;;;;;;3.70;1.90;;;7.70;99.90;;;;;;5082505;28;20457;-72
2023/01/04 08:29:02;;;;;;;4.70;1.80;;;7.70;99.90;;;;;;5062170;28;20462;-72
2023/01/04 08:31:30;;;;;;;1.93;1.53;;;7.70;99.90;;;;;;5068429;28;20215;-72
2023/01/04 08:33:57;;;;;;;2.37;1.80;;;7.70;99.90;;;;;;5052737;28;20238;-71
2023/01/04 08:36:26;;;;;;;2.27;1.70;;;7.70;99.90;;;;;;5035483;28;20474;-72
2023/01/04 08:38:58;;;;;;;3.17;2.87;;;7.70;99.90;;;;;;5037287;28;20469;-72
2023/01/04 08:41:23;;;;;;;11.87;7.33;;;7.80;99.90;;;;;;5035430;28;20458;-72
2023/01/04 08:43:49;;;;;;;7.13;5.63;;;7.80;99.90;;;;;;5054261;28;20451;-71
2023/01/04 08:46:15;;;;;;;7.30;4.70;;;7.80;99.90;;;;;;5040903;28;20220;-72
2023/01/04 08:48:41;;;;;;;8.50;7.60;;;7.80;99.90;;;;;;5056393;28;20229;-72
2023/01/04 08:51:17;;;;;;;14.70;13.20;;;7.80;99.90;;;;;;5064790;28;20227;-71
2023/01/04 08:53:43;;;;;;;12.90;9.43;;;7.80;99.90;;;;;;5081162;28;20509;-72
2023/01/04 08:56:09;;;;;;;7.17;6.50;;;7.80;99.90;;;;;;5059249;28;20550;-72
2023/01/04 08:58:36;;;;;;;6.60;4.90;;;7.80;99.90;;;;;;5080630;28;20471;-72
2023/01/04 09:01:08;;;;;;;4.00;3.70;;;7.80;99.90;;;;;;5053163;28;20449;-73
2023/01/04 09:03:34;;;;;;;3.57;3.27;;;7.80;99.90;;;;;;5032981;28;20511;-72
2023/01/04 09:06:04;;;;;;;2.47;2.27;;;7.90;99.90;;;;;;5042821;28;21006;-72
2023/01/04 09:08:31;;;;;;;1.80;1.70;;;7.90;99.90;;;;;;5013216;28;20998;-72
2023/01/04 09:10:58;;;;;;;2.23;2.03;;;7.90;99.90;;;;;;5051803;28;20461;-71
2023/01/04 09:13:23;;;;;;;5.83;2.90;;;7.90;99.90;;;;;;5048212;28;20463;-71
2023/01/04 09:15:49;;;;;;;2.70;2.50;;;7.90;99.90;;;;;;5040228;28;20841;-72
2023/01/04 09:18:14;;;;;;;2.57;1.97;;;7.90;99.90;;;;;;5046188;28;20239;-72
2023/01/04 09:20:40;;;;;;;1.73;1.63;;;8.00;99.90;;;;;;5042739;28;20224;-71
2023/01/04 09:23:06;;;;;;;3.10;2.80;;;8.00;99.90;;;;;;5048513;28;20219;-72
2023/01/04 09:25:32;;;;;;;4.80;4.40;;;8.00;99.90;;;;;;5053589;28;20223;-72
2023/01/04 09:27:57;;;;;;;4.97;4.57;;;8.00;99.90;;;;;;5061478;28;20216;-72
2023/01/04 09:30:23;;;;;;;5.27;3.40;;;8.00;99.90;;;;;;5031194;28;20212;-72
2023/01/04 09:32:48;;;;;;;3.53;3.33;;;8.00;99.90;;;;;;5044712;28;20715;-72
2023/01/04 09:35:14;;;;;;;2.70;2.50;;;8.00;99.90;;;;;;5028733;28;20226;-73
2023/01/04 09:37:40;;;;;;;4.40;3.10;;;8.00;99.90;;;;;;5064828;28;21243;-71
2023/01/04 09:40:06;;;;;;;3.80;3.50;;;8.00;99.90;;;;;;5042135;28;20223;-72
2023/01/04 09:42:39;;;;;;;18.07;11.70;;;8.10;99.90;;;;;;5054136;28;20613;-72
2023/01/04 09:45:26;;;;;;;15.43;11.40;;;8.10;99.90;;;;;;5051253;28;20457;-73
2023/01/04 09:48:13;;;;;;;8.20;6.30;;;8.10;99.90;;;;;;5065434;28;20444;-72
2023/01/04 09:50:53;;;;;;;7.10;5.00;;;8.10;99.90;;;;;;5067540;28;20548;-72
2023/01/04 09:53:32;;;;;;;7.60;3.70;;;8.10;99.90;;;;;;5074276;28;20472;-73
2023/01/04 09:56:08;;;;;;;3.23;2.93;;;8.10;99.90;;;;;;5070185;28;20926;-72
2023/01/04 09:58:39;;;;;;;3.80;2.93;;;8.20;99.90;;;;;;5054588;28;20469;-73
2023/01/04 10:01:13;;;;;;;3.07;2.90;;;8.20;99.90;;;;;;5038598;28;21092;-72
2023/01/04 10:03:46;;;;;;;2.37;2.20;;;8.20;99.90;;;;;;5070375;28;20461;-73
2023/01/04 10:06:14;;;;;;;1.97;1.57;;;8.30;99.90;;;;;;5041077;28;21081;-72
2023/01/04 10:08:41;;;;;;;2.00;1.90;;;8.30;99.90;;;;;;5049525;28;20507;-71
2023/01/04 10:11:22;;;;;;;2.00;1.90;;;8.30;99.90;;;;;;5059161;28;20834;-71
2023/01/04 10:13:50;;;;;;;2.93;2.20;;;8.30;99.90;;;;;;5049202;28;20581;-72
2023/01/04 10:16:43;;;;;;;1.97;1.80;;;8.30;99.90;;;;;;5028296;28;20459;-73
2023/01/04 10:19:09;;;;;;;1.70;1.60;;;8.40;99.90;;;;;;5052843;28;20457;-71
2023/01/04 10:21:48;;;;;;;1.97;1.70;;;8.40;99.90;;;;;;5054781;28;20465;-72
2023/01/04 10:24:58;;;;;;;1.73;1.63;;;8.40;99.90;;;;;;5046259;28;20226;-72
2023/01/04 10:27:33;;;;;;;1.93;1.60;;;8.40;99.90;;;;;;5083850;28;20529;-72
2023/01/04 10:30:20;;;;;;;2.30;2.10;;;8.50;99.90;;;;;;5035658;28;20449;-71
2023/01/04 10:33:11;;;;;;;3.00;2.70;;;8.50;99.90;;;;;;5088655;28;20997;-72
2023/01/04 10:35:39;;;;;;;2.20;2.10;;;8.50;99.90;;;;;;5041664;28;20538;-72
2023/01/04 10:38:16;;;;;;;2.97;2.23;;;8.50;99.90;;;;;;5054790;28;20449;-71
2023/01/04 10:40:46;;;;;;;2.60;2.20;;;8.50;99.90;;;;;;5060191;28;20465;-72
2023/01/04 10:43:14;;;;;;;2.07;1.97;;;8.50;99.90;;;;;;5063070;28;20453;-73
2023/01/04 10:45:58;;;;;;;6.30;5.70;;;8.60;99.90;;;;;;5075221;28;20548;-72
2023/01/04 10:48:47;;;;;;;8.37;7.20;;;8.60;99.90;;;;;;5042485;28;20461;-71
2023/01/04 10:51:17;;;;;;;6.13;5.53;;;8.60;99.90;;;;;;5051443;28;21047;-73
2023/01/04 10:53:55;;;;;;;3.33;2.90;;;8.60;99.90;;;;;;5034944;28;20458;-72
2023/01/04 10:56:51;;;;;;;2.70;2.50;;;8.60;99.90;;;;;;5044157;28;20501;-73
2023/01/04 10:59:45;;;;;;;2.97;2.77;;;8.70;99.90;;;;;;5057579;28;20486;-73
2023/01/04 11:02:29;;;;;;;3.00;2.77;;;8.70;99.90;;;;;;5054703;28;20452;-71
2023/01/04 11:05:19;;;;;;;4.10;2.87;;;8.70;99.90;;;;;;5067144;28;20958;-71
2023/01/04 11:08:00;;;;;;;5.30;2.30;;;8.70;99.90;;;;;;5018124;28;20503;-71
2023/01/04 11:10:53;;;;;;;5.23;2.83;;;8.70;99.90;;;;;;5046141;28;20480;-71
2023/01/04 11:13:19;;;;;;;3.10;2.60;;;8.70;99.90;;;;;;5049540;28;20470;-71
2023/01/04 11:15:46;;;;;;;3.03;2.83;;;8.80;99.90;;;;;;5049417;28;20442;-71
2023/01/04 11:18:13;;;;;;;2.97;2.63;;;8.70;99.90;;;;;;5049135;28;20228;-70
2023/01/04 11:20:39;;;;;;;1.67;1.57;;;8.80;99.90;;;;;;5045540;28;20508;-72
2023/01/04 11:23:11;;;;;;;1.90;1.77;;;8.80;99.90;;;;;;5029546;28;20518;-71
2023/01/04 11:26:06;;;;;;;1.93;1.80;;;8.80;99.90;;;;;;5035930;28;20459;-71
2023/01/04 11:28:48;;;;;;;1.80;1.70;;;8.90;99.90;;;;;;5023024;28;20520;-72
2023/01/04 11:31:35;;;;;;;4.00;1.57;;;8.90;99.90;;;;;;5039412;28;20826;-72
2023/01/04 11:34:02;;;;;;;1.83;1.73;;;8.90;99.90;;;;;;5057218;28;20457;-72
2023/01/04 11:36:42;;;;;;;2.00;1.90;;;8.90;99.90;;;;;;5051034;28;20450;-73
2023/01/04 11:39:25;;;;;;;2.40;1.67;;;8.90;99.90;;;;;;5039116;28;20466;-70
2023/01/04 11:42:03;;;;;;;1.83;1.73;;;9.00;99.90;;;;;;5068821;28;20453;-71
2023/01/04 11:44:33;;;;;;;2.00;1.57;;;8.90;99.90;;;;;;5086399;28;20980;-71
2023/01/04 11:47:15;;;;;;;1.70;1.60;;;8.90;99.90;;;;;;5051528;28;20447;-72
2023/01/04 11:49:41;;;;;;;5.47;1.97;;;8.90;99.90;;;;;;5055053;28;20941;-72
2023/01/04 11:52:30;;;;;;;1.53;1.40;;;9.00;99.90;;;;;;5058857;28;20461;-72
2023/01/04 11:55:14;;;;;;;1.63;1.53;;;9.00;99.90;;;;;;5042711;28;20222;-71
2023/01/04 11:57:40;;;;;;;1.80;1.70;;;9.00;99.90;;;;;;5051029;28;20461;-70
2023/01/04 12:00:08;;;;;;;1.33;1.33;;;9.00;99.90;;;;;;5055553;28;20461;-71
2023/01/04 12:02:34;;;;;;;1.97;1.87;;;9.00;99.90;;;;;;5038872;28;20224;-71
2023/01/04 12:04:59;;;;;;;1.37;1.33;;;9.00;99.90;;;;;;5056638;28;20449;-71
2023/01/04 12:07:32;;;;;;;1.77;1.50;;;9.00;99.90;;;;;;5053200;28;20232;-71
2023/01/04 12:10:01;;;;;;;1.63;1.53;;;9.10;99.90;;;;;;5031250;28;20216;-68
2023/01/04 12:12:30;;;;;;;2.10;1.67;;;9.00;99.90;;;;;;5053425;28;20466;-71
2023/01/04 12:15:01;;;;;;;3.30;1.67;;;9.10;99.90;;;;;;5033484;28;20443;-70
2023/01/04 12:17:33;;;;;;;2.03;1.80;;;9.10;99.90;;;;;;5043415;28;20461;-71
2023/01/04 12:20:02;;;;;;;3.20;2.40;;;9.10;99.90;;;;;;5034520;28;20497;-69
2023/01/04 12:22:39;;;;;;;2.37;2.17;;;9.10;99.90;;;;;;5053895;28;20464;-71
2023/01/04 12:25:28;;;;;;;2.03;1.87;;;9.10;99.90;;;;;;5052433;28;20464;-70
2023/01/04 12:27:54;;;;;;;1.90;1.80;;;9.10;99.90;;;;;;5037486;28;20961;-71
2023/01/04 12:30:32;;;;;;;2.17;1.97;;;9.10;99.90;;;;;;5056203;28;20539;-71
2023/01/04 12:32:58;;;;;;;4.13;3.30;;;9.20;99.90;;;;;;5057281;28;20464;-70
2023/01/04 12:36:02;;;;;;;7.97;5.90;;;9.10;99.90;;;;;;5050281;28;20461;-70
2023/01/04 12:39:05;;;;;;;4.37;3.67;;;9.20;99.90;;;;;;5050303;28;20714;-71
2023/01/04 12:41:33;;;;;;;4.10;3.20;;;9.20;99.90;;;;;;5054371;28;20555;-71
2023/01/04 12:44:00;;;;;;;2.93;2.63;;;9.20;99.90;;;;;;5048863;28;20438;-71
2023/01/04 12:49:26;;;;;;;18.63;9.30;;;9.20;99.90;;;;;;5053166;28;20474;-71
2023/01/04 12:52:07;;;;;;;20.00;13.87;;;9.20;99.90;;;;;;5045575;28;20471;-72
2023/01/04 12:54:53;;;;;;;25.57;17.70;;;9.20;99.90;;;;;;5047395;28;20463;-72
2023/01/04 12:57:22;;;;;;;14.63;6.40;;;9.30;99.90;;;;;;5033452;28;20471;-71
2023/01/04 12:59:56;;;;;;;3.40;3.10;;;9.30;99.90;;;;;;5049923;28;20862;-72
2023/01/04 13:02:27;;;;;;;3.20;2.70;;;9.30;99.90;;;;;;5050599;28;20451;-71
2023/01/04 13:05:17;;;;;;;2.67;2.47;;;9.30;99.90;;;;;;5035849;28;21045;-72
2023/01/04 13:07:56;;;;;;;2.87;2.47;;;9.40;99.90;;;;;;5043002;28;20470;-72
2023/01/04 13:10:34;;;;;;;4.77;3.70;;;9.40;99.90;;;;;;5039375;28;20450;-71
2023/01/04 13:13:18;;;;;;;3.20;2.90;;;9.40;99.90;;;;;;5055049;28;20515;-72
2023/01/04 13:16:18;;;;;;;2.30;2.10;;;9.50;99.90;;;;;;5067081;28;20435;-72
2023/01/04 13:18:51;;;;;;;5.10;2.83;;;9.50;99.90;;;;;;5033907;28;20453;-72
2023/01/04 13:21:47;;;;;;;2.73;2.53;;;9.50;99.90;;;;;;5048641;28;20442;-71
2023/01/04 13:24:17;;;;;;;3.70;2.57;;;9.60;99.90;;;;;;5045082;28;20453;-72
2023/01/04 13:26:47;;;;;;;2.40;2.20;;;9.60;99.90;;;;;;5046846;28;20498;-72
2023/01/04 13:29:15;;;;;;;3.20;2.73;;;9.60;99.90;;;;;;5057776;28;20557;-72
2023/01/04 13:31:55;;;;;;;2.20;2.00;;;9.60;99.90;;;;;;5054454;28;20460;-72
2023/01/04 13:34:30;;;;;;;2.30;1.97;;;9.60;99.90;;;;;;5049482;28;20462;-72
2023/01/04 13:37:12;;;;;;;3.60;2.20;;;9.60;99.90;;;;;;5033907;28;20539;-72
2023/01/04 13:39:43;;;;;;;2.60;1.83;;;9.60;99.90;;;;;;5057304;28;20551;-72
2023/01/04 13:42:36;;;;;;;2.00;1.90;;;9.60;99.90;;;;;;5044412;28;20492;-71
2023/01/04 13:45:08;;;;;;;1.60;1.50;;;9.60;99.90;;;;;;5056714;28;20453;-71
2023/01/04 13:47:36;;;;;;;1.80;1.70;;;9.70;99.90;;;;;;5062258;28;20463;-71
2023/01/04 13:50:03;;;;;;;2.00;1.90;;;9.70;99.90;;;;;;5034227;28;20457;-72
2023/01/04 13:52:29;;;;;;;2.20;2.10;;;9.70;99.90;;;;;;5042342;28;20469;-72
2023/01/04 13:55:19;;;;;;;1.70;1.60;;;9.70;99.90;;;;;;5062166;28;20503;-71
2023/01/04 13:58:14;;;;;;;2.13;1.60;;;9.70;99.90;;;;;;5051773;28;20519;-72
2023/01/04 14:00:55;;;;;;;1.67;1.57;;;9.70;99.90;;;;;;5068583;28;20480;-72
2023/01/04 14:03:38;;;;;;;2.30;2.20;;;9.70;99.90;;;;;;5056971;28;20459;-72
2023/01/04 14:06:14;;;;;;;4.00;2.43;;;9.70;99.90;;;;;;5079015;28;20459;-71
2023/01/04 14:08:57;;;;;;;2.83;2.23;;;9.70;99.90;;;;;;5043333;28;20457;-72
2023/01/04 14:11:57;;;;;;;2.23;2.00;;;9.70;99.90;;;;;;5054099;28;20446;-72